createdAt,value
2019-02-07T00:00:43.038Z,67.82
2019-02-07T00:03:11.136Z,64.33
2019-02-07T00:05:39.199Z,63.82
2019-02-07T00:08:07.234Z,63.40
2019-02-07T00:10:36.963Z,65.77
2019-02-07T00:13:04.959Z,62.73
2019-02-07T00:15:33.109Z,62.68
2019-02-07T00:18:01.211Z,64.73
2019-02-07T00:20:29.245Z,61.53
2019-02-07T00:22:57.243Z,65.75
2019-02-07T00:25:25.358Z,61.80
2019-02-07T00:27:53.678Z,62.04
2019-02-07T00:30:21.658Z,61.65
2019-02-07T00:32:49.732Z,65.94
2019-02-07T00:35:17.806Z,60.62
2019-02-07T00:37:45.804Z,65.72
2019-02-07T00:40:14.560Z,62.13
2019-02-07T00:42:43.063Z,64.76
2019-02-07T00:45:33.280Z,66.01
2019-02-07T00:48:01.248Z,65.27
2019-02-07T00:50:31.148Z,65.33
2019-02-07T00:52:59.070Z,60.63
2019-02-07T00:55:27.128Z,66.14
2019-02-07T00:57:55.106Z,65.43
2019-02-07T01:00:24.151Z,64.12
2019-02-07T01:02:52.218Z,63.92
2019-02-07T01:05:21.474Z,65.52
2019-02-07T01:07:49.491Z,60.75
2019-02-07T01:10:21.887Z,65.00
2019-02-07T01:12:49.881Z,63.74
2019-02-07T01:15:17.982Z,66.13
2019-02-07T01:17:46.082Z,62.42
2019-02-07T01:20:14.804Z,65.41
2019-02-07T01:22:42.813Z,66.28
2019-02-07T01:25:13.535Z,65.58
2019-02-07T01:27:41.496Z,62.06
2019-02-07T01:30:11.315Z,63.02
2019-02-07T01:32:39.303Z,62.05
2019-02-07T01:35:07.406Z,61.07
2019-02-07T01:37:35.364Z,65.22
2019-02-07T01:40:03.429Z,63.07
2019-02-07T01:42:31.746Z,63.50
2019-02-07T01:44:59.794Z,59.95
2019-02-07T01:47:27.802Z,63.08
2019-02-07T01:49:55.770Z,66.16
2019-02-07T01:52:23.780Z,64.37
2019-02-07T01:54:51.888Z,58.70
2019-02-07T01:57:19.916Z,64.49
2019-02-07T01:59:47.917Z,61.52
2019-02-07T02:02:15.914Z,61.90
2019-02-07T02:04:43.934Z,60.78
2019-02-07T02:07:11.938Z,57.62
2019-02-07T02:09:39.933Z,63.71
2019-02-07T02:12:07.926Z,61.94
2019-02-07T02:14:36.245Z,65.20
2019-02-07T02:17:04.292Z,65.30
2019-02-07T02:19:32.327Z,61.55
2019-02-07T02:22:00.300Z,59.99
2019-02-07T02:24:28.268Z,63.23
2019-02-07T02:26:56.293Z,63.50
2019-02-07T02:29:24.285Z,62.87
2019-02-07T02:31:54.053Z,64.84
2019-02-07T02:34:22.133Z,60.27
2019-02-07T02:36:50.163Z,60.08
2019-02-07T02:39:18.143Z,63.22
2019-02-07T02:41:46.165Z,64.80
2019-02-07T02:44:14.159Z,63.02
2019-02-07T02:46:42.204Z,59.46
2019-02-07T02:49:10.427Z,63.77
2019-02-07T02:51:38.463Z,64.99
2019-02-07T02:54:09.670Z,58.96
2019-02-07T02:56:37.642Z,58.20
2019-02-07T02:59:05.692Z,57.66
2019-02-07T03:01:44.744Z,61.08
2019-02-07T03:04:21.367Z,65.10
2019-02-07T03:07:07.000Z,57.71
2019-02-07T03:09:59.752Z,61.30
2019-02-07T03:12:42.309Z,58.06
2019-02-07T03:15:30.224Z,63.14
2019-02-07T03:18:23.729Z,63.00
2019-02-07T03:21:19.962Z,60.85
2019-02-07T03:24:21.900Z,63.63
2019-02-07T03:26:58.461Z,62.43
2019-02-07T03:29:45.459Z,63.51
2019-02-07T03:32:32.509Z,64.73
2019-02-07T03:35:22.683Z,57.83
2019-02-07T03:38:08.405Z,62.08
2019-02-07T03:41:13.743Z,59.84
2019-02-07T03:43:57.590Z,63.05
2019-02-07T03:46:45.883Z,60.29
2019-02-07T03:49:31.213Z,62.30
2019-02-07T03:52:36.708Z,59.76
2019-02-07T03:55:23.855Z,64.04
2019-02-07T03:58:09.363Z,57.29
2019-02-07T04:01:03.832Z,59.42
2019-02-07T04:03:53.567Z,62.53
2019-02-07T04:06:46.559Z,57.68
2019-02-07T04:09:36.548Z,63.66
2019-02-07T04:12:26.612Z,60.79
2019-02-07T04:15:16.584Z,58.72
2019-02-07T04:18:21.770Z,58.31
2019-02-07T04:21:14.540Z,65.48
2019-02-07T04:24:04.536Z,61.29
2019-02-07T04:26:51.522Z,63.42
2019-02-07T04:29:36.435Z,64.28
2019-02-07T04:32:29.319Z,61.08
2019-02-07T04:35:16.273Z,59.16
2019-02-07T04:38:09.250Z,60.97
2019-02-07T04:41:02.711Z,61.62
2019-02-07T04:43:55.564Z,58.23
2019-02-07T04:46:41.339Z,58.79
2019-02-07T04:49:27.512Z,60.06
2019-02-07T04:52:16.215Z,65.40
2019-02-07T04:55:12.235Z,62.89
2019-02-07T04:58:17.647Z,61.63
2019-02-07T05:01:03.120Z,63.71
2019-02-07T05:03:52.926Z,63.22
2019-02-07T05:06:40.841Z,64.15
2019-02-07T05:09:30.554Z,57.89
2019-02-07T05:12:16.794Z,61.18
2019-02-07T05:15:18.889Z,62.71
2019-02-07T05:17:57.908Z,62.25
2019-02-07T05:20:43.654Z,60.70
2019-02-07T05:23:29.292Z,65.05
2019-02-07T05:26:16.247Z,62.96
2019-02-07T05:29:02.093Z,59.94
2019-02-07T05:31:55.164Z,64.72
2019-02-07T05:34:51.708Z,62.73
2019-02-07T05:37:57.122Z,62.30
2019-02-07T05:40:36.196Z,60.95
2019-02-07T05:43:20.980Z,63.13
2019-02-07T05:46:07.916Z,60.98
2019-02-07T05:48:53.751Z,63.84
2019-02-07T05:51:39.158Z,61.38
2019-02-07T05:54:37.993Z,58.77
2019-02-07T05:57:25.023Z,63.96
2019-02-07T06:00:17.525Z,59.60
2019-02-07T06:03:03.438Z,63.11
2019-02-07T06:05:51.415Z,64.71
2019-02-07T06:08:28.716Z,61.72
2019-02-07T06:11:15.627Z,58.74
2019-02-07T06:14:08.678Z,60.42
2019-02-07T06:17:02.197Z,59.18
2019-02-07T06:19:45.755Z,62.17
2019-02-07T06:22:38.594Z,59.98
2019-02-07T06:25:18.905Z,64.71
2019-02-07T06:28:08.881Z,63.67
2019-02-07T06:31:07.792Z,59.77
2019-02-07T06:33:57.965Z,64.69
2019-02-07T06:36:35.868Z,64.61
2019-02-07T06:39:28.559Z,58.99
2019-02-07T06:42:06.397Z,64.48
2019-02-07T06:44:56.092Z,60.94
2019-02-07T06:47:43.014Z,63.97
2019-02-07T06:50:23.918Z,62.88
2019-02-07T06:53:11.361Z,60.90
2019-02-07T06:55:56.850Z,60.26
2019-02-07T06:58:48.854Z,60.72
2019-02-07T07:01:38.873Z,64.18
2019-02-07T07:04:24.659Z,64.48
2019-02-07T07:07:11.655Z,60.03
2019-02-07T07:09:55.763Z,62.25
2019-02-07T07:12:42.793Z,65.60
2019-02-07T07:15:19.201Z,64.03
2019-02-07T07:17:55.853Z,65.33
2019-02-07T07:20:43.117Z,63.21
2019-02-07T07:23:40.765Z,62.71
2019-02-07T07:26:26.546Z,64.19
2019-02-07T07:29:10.594Z,62.25
2019-02-07T07:31:56.664Z,65.36
2019-02-07T07:34:43.671Z,64.15
2019-02-07T07:37:27.324Z,63.59
2019-02-07T07:40:20.360Z,63.51
2019-02-07T07:43:05.812Z,65.49
2019-02-07T07:46:10.854Z,65.42
2019-02-07T07:48:50.946Z,65.95
2019-02-07T07:51:37.908Z,66.27
2019-02-07T07:54:31.045Z,66.88
2019-02-07T07:57:20.222Z,66.15
2019-02-07T08:00:06.102Z,66.35
2019-02-07T08:03:02.036Z,66.13
2019-02-07T08:05:36.712Z,65.94
2019-02-07T08:08:27.767Z,66.16
2019-02-07T08:11:07.026Z,66.50
2019-02-07T08:13:53.129Z,66.87
2019-02-07T08:16:55.267Z,66.19
2019-02-07T08:19:40.996Z,65.57
2019-02-07T08:22:36.970Z,65.98
2019-02-07T08:25:54.127Z,63.77
2019-02-07T08:28:56.148Z,64.19
2019-02-07T08:32:01.209Z,65.78
2019-02-07T08:34:48.189Z,64.90
2019-02-07T08:37:34.173Z,65.17
2019-02-07T08:40:19.296Z,65.87
2019-02-07T08:43:09.331Z,66.21
2019-02-07T08:45:56.299Z,65.28
2019-02-07T08:48:43.213Z,66.23
2019-02-07T08:51:30.863Z,65.70
2019-02-07T08:54:36.190Z,66.05
2019-02-07T08:57:19.796Z,66.05
2019-02-07T09:00:18.816Z,65.71
2019-02-07T09:03:04.453Z,65.66
2019-02-07T09:05:52.060Z,66.26
2019-02-07T09:08:47.845Z,66.57
2019-02-07T09:11:33.808Z,67.01
2019-02-07T09:14:29.868Z,68.37
2019-02-07T09:17:17.200Z,67.83
2019-02-07T09:20:04.207Z,68.30
2019-02-07T09:22:49.651Z,68.87
2019-02-07T09:25:39.743Z,68.70
2019-02-07T09:28:25.631Z,69.30
2019-02-07T09:31:10.569Z,69.17
2019-02-07T09:34:03.232Z,69.20
2019-02-07T09:36:41.993Z,70.16
2019-02-07T09:39:28.969Z,69.45
2019-02-07T09:42:14.543Z,69.92
2019-02-07T09:44:58.409Z,69.67
2019-02-07T09:47:46.628Z,70.36
2019-02-07T09:50:28.915Z,69.85
2019-02-07T09:53:24.001Z,71.43
2019-02-07T09:56:06.773Z,71.32
2019-02-07T09:58:52.617Z,70.70
2019-02-07T10:01:38.382Z,71.22
2019-02-07T10:04:28.596Z,71.20
2019-02-07T10:07:14.158Z,71.95
2019-02-07T10:10:00.096Z,71.47
2019-02-07T10:12:45.732Z,70.75
2019-02-07T10:15:31.254Z,71.11
2019-02-07T10:18:15.292Z,71.36
2019-02-07T10:21:00.651Z,71.39
2019-02-07T10:23:56.886Z,72.02
2019-02-07T10:26:35.564Z,71.91
2019-02-07T10:29:21.126Z,71.66
2019-02-07T10:32:26.353Z,71.89
2019-02-07T10:35:22.647Z,71.40
2019-02-07T10:38:01.979Z,71.90
2019-02-07T10:40:43.751Z,71.48
2019-02-07T10:43:29.531Z,71.97
2019-02-07T10:46:23.473Z,71.25
2019-02-07T10:49:22.637Z,71.75
2019-02-07T10:52:10.540Z,71.03
2019-02-07T10:55:03.308Z,71.84
2019-02-07T10:57:51.538Z,70.99
2019-02-07T11:00:37.993Z,71.53
2019-02-07T11:03:25.060Z,71.55
2019-02-07T11:06:10.752Z,70.80
2019-02-07T11:08:57.226Z,71.36
2019-02-07T11:11:45.994Z,70.44
2019-02-07T11:14:42.188Z,70.43
2019-02-07T11:17:27.711Z,70.04
2019-02-07T11:20:17.744Z,69.94
2019-02-07T11:23:06.740Z,69.72
2019-02-07T11:25:52.607Z,69.75
2019-02-07T11:28:45.705Z,69.82
2019-02-07T11:31:32.971Z,69.54
2019-02-07T11:34:10.603Z,69.67
2019-02-07T11:36:57.134Z,69.81
2019-02-07T11:39:44.131Z,69.51
2019-02-07T11:42:31.152Z,69.22
2019-02-07T11:45:17.989Z,69.57
2019-02-07T11:48:10.874Z,68.88
2019-02-07T11:51:01.955Z,69.20
2019-02-07T11:53:43.417Z,69.06
2019-02-07T11:56:36.697Z,68.93
2019-02-07T11:59:12.915Z,69.57
2019-02-07T12:02:09.536Z,69.00
2019-02-07T12:04:47.870Z,69.25
2019-02-07T12:07:33.622Z,67.68
2019-02-07T12:10:23.504Z,68.76
2019-02-07T12:13:03.721Z,68.21
2019-02-07T12:16:00.236Z,68.69
2019-02-07T12:18:50.298Z,68.34
2019-02-07T12:21:49.154Z,66.24
2019-02-07T12:24:34.838Z,66.45
2019-02-07T12:27:20.494Z,68.45
2019-02-07T12:30:10.720Z,66.11
2019-02-07T12:32:44.443Z,68.58
2019-02-07T12:35:43.197Z,66.74
2019-02-07T12:38:30.808Z,67.06
2019-02-07T12:41:17.761Z,66.90
2019-02-07T12:44:07.804Z,67.92
2019-02-07T12:46:53.325Z,65.45
2019-02-07T12:49:49.708Z,69.26
2019-02-07T12:52:28.997Z,69.61
2019-02-07T12:55:16.389Z,63.77
2019-02-07T12:58:14.271Z,68.77
2019-02-07T13:01:13.864Z,67.82
2019-02-07T13:04:01.836Z,68.12
2019-02-07T13:06:47.400Z,67.42
2019-02-07T13:09:33.546Z,67.97
2019-02-07T13:12:24.284Z,64.60
2019-02-07T13:15:09.335Z,63.92
2019-02-07T13:17:56.334Z,65.69
2019-02-07T13:20:36.659Z,63.34
2019-02-07T13:23:39.258Z,67.34
2019-02-07T13:26:26.291Z,67.46
2019-02-07T13:29:13.357Z,67.76
2019-02-07T13:32:09.657Z,64.04
2019-02-07T13:34:55.531Z,67.97
2019-02-07T13:37:41.642Z,67.59
2019-02-07T13:40:29.266Z,66.66
2019-02-07T13:43:31.368Z,61.98
2019-02-07T13:46:24.143Z,65.66
2019-02-07T13:49:15.569Z,63.54
2019-02-07T13:52:02.581Z,62.54
2019-02-07T13:54:36.952Z,67.16
2019-02-07T13:57:24.990Z,60.02
2019-02-07T14:00:26.927Z,62.42
2019-02-07T14:03:09.773Z,66.75
2019-02-07T14:05:56.822Z,60.92
2019-02-07T14:08:52.785Z,64.86
2019-02-07T14:11:42.823Z,61.46
2019-02-07T14:14:38.955Z,61.92
2019-02-07T14:17:37.954Z,64.23
2019-02-07T14:20:26.280Z,65.47
2019-02-07T14:23:06.878Z,63.43
2019-02-07T14:26:00.362Z,63.12
2019-02-07T14:28:38.842Z,62.93
2019-02-07T14:31:32.010Z,64.09
2019-02-07T14:34:17.788Z,63.21
2019-02-07T14:37:13.841Z,61.56
2019-02-07T14:39:59.260Z,64.24
2019-02-07T14:42:46.263Z,62.45
2019-02-07T14:45:32.229Z,62.01
2019-02-07T14:48:00.387Z,64.41
2019-02-07T14:50:28.629Z,64.16
2019-02-07T14:52:56.662Z,63.72
2019-02-07T14:55:24.960Z,61.83
2019-02-07T14:57:52.990Z,66.17
2019-02-07T15:00:22.883Z,64.34
2019-02-07T15:02:50.943Z,67.96
2019-02-07T15:05:19.047Z,67.54
2019-02-07T15:07:47.061Z,67.01
2019-02-07T15:10:16.745Z,62.12
2019-02-07T15:12:44.773Z,63.27
2019-02-07T15:15:13.911Z,67.97
2019-02-07T15:17:41.922Z,67.31
2019-02-07T15:20:10.092Z,66.08
2019-02-07T15:22:38.172Z,65.06
2019-02-07T15:25:06.668Z,65.79
2019-02-07T15:27:35.170Z,66.59
2019-02-07T15:30:03.219Z,68.46
2019-02-07T15:32:31.801Z,64.63
2019-02-07T15:34:59.792Z,65.44
2019-02-07T15:37:27.906Z,68.30
2019-02-07T15:39:56.022Z,68.36
2019-02-07T15:42:24.273Z,63.68
2019-02-07T15:44:52.740Z,68.97
2019-02-07T15:47:20.870Z,66.87
2019-02-07T15:49:49.024Z,65.17
2019-02-07T15:52:17.164Z,68.77
2019-02-07T15:54:45.270Z,63.73
2019-02-07T15:57:13.298Z,64.21
2019-02-07T15:59:53.320Z,68.04
2019-02-07T16:02:35.461Z,68.76
2019-02-07T16:05:04.203Z,68.30
2019-02-07T16:07:32.321Z,66.86
2019-02-07T16:10:00.451Z,68.77
2019-02-07T16:12:29.021Z,64.82
2019-02-07T16:14:57.245Z,69.39
2019-02-07T16:17:25.820Z,67.46
2019-02-07T16:19:53.972Z,69.24
2019-02-07T16:22:22.686Z,69.26
2019-02-07T16:24:50.813Z,69.34
2019-02-07T16:27:19.441Z,68.58
2019-02-07T16:29:47.595Z,65.48
2019-02-07T16:32:15.720Z,69.54
2019-02-07T16:34:44.805Z,69.19
2019-02-07T16:37:13.416Z,66.82
2019-02-07T16:39:41.994Z,67.12
2019-02-07T16:42:10.244Z,70.69
2019-02-07T16:44:38.392Z,70.13
2019-02-07T16:47:06.586Z,67.83
2019-02-07T16:49:34.973Z,69.85
2019-02-07T16:52:03.287Z,68.48
2019-02-07T16:54:31.444Z,67.79
2019-02-07T16:56:59.650Z,69.15
2019-02-07T16:59:28.170Z,68.01
2019-02-07T17:01:56.404Z,69.75
2019-02-07T17:04:24.579Z,68.34
2019-02-07T17:06:52.742Z,69.76
2019-02-07T17:09:30.545Z,69.24
2019-02-07T17:12:00.921Z,68.63
2019-02-07T17:14:29.170Z,69.12
2019-02-07T17:16:57.647Z,68.61
2019-02-07T17:19:26.327Z,69.47
2019-02-07T17:21:54.491Z,69.97
2019-02-07T17:24:22.970Z,70.06
2019-02-07T17:26:51.637Z,69.42
2019-02-07T17:29:20.291Z,69.34
2019-02-07T17:31:48.836Z,69.42
2019-02-07T17:34:17.316Z,69.33
2019-02-07T17:36:45.570Z,69.52
2019-02-07T17:39:13.748Z,69.05
2019-02-07T17:41:42.031Z,69.21
2019-02-07T17:44:10.223Z,69.60
2019-02-07T17:46:38.858Z,69.87
2019-02-07T17:49:07.060Z,69.45
2019-02-07T17:51:35.175Z,69.70
2019-02-07T17:54:03.698Z,69.15
2019-02-07T17:56:31.993Z,69.26
2019-02-07T17:59:00.087Z,69.33
2019-02-07T18:01:28.212Z,68.25
2019-02-07T18:03:56.349Z,69.77
2019-02-07T18:06:24.523Z,70.06
2019-02-07T18:08:52.692Z,69.78
2019-02-07T18:11:20.778Z,70.20
2019-02-07T18:13:49.026Z,68.95
2019-02-07T18:16:17.547Z,69.55
2019-02-07T18:18:46.243Z,69.66
2019-02-07T18:21:15.515Z,68.99
2019-02-07T18:23:43.621Z,68.89
2019-02-07T18:26:11.874Z,69.91
2019-02-07T18:28:40.115Z,70.23
2019-02-07T18:31:08.538Z,70.82
2019-02-07T18:33:37.155Z,71.33
2019-02-07T18:36:06.173Z,68.83
2019-02-07T18:38:34.869Z,69.64
2019-02-07T18:41:03.689Z,69.43
2019-02-07T18:43:32.351Z,70.98
2019-02-07T18:46:00.685Z,71.91
2019-02-07T18:48:30.089Z,70.44
2019-02-07T18:50:58.320Z,69.65
2019-02-07T18:53:27.108Z,71.79
2019-02-07T18:55:56.586Z,69.38
2019-02-07T18:58:25.628Z,69.31
2019-02-07T19:00:54.825Z,70.24
2019-02-07T19:03:23.182Z,69.93
2019-02-07T19:05:51.694Z,71.49
2019-02-07T19:08:21.065Z,69.63
2019-02-07T19:10:49.878Z,70.91
2019-02-07T19:13:19.052Z,71.66
2019-02-07T19:15:57.993Z,70.63
2019-02-07T19:18:26.800Z,71.24
2019-02-07T19:20:55.822Z,71.22
2019-02-07T19:23:24.847Z,69.14
2019-02-07T19:25:53.721Z,70.69
2019-02-07T19:28:22.644Z,70.30
2019-02-07T19:30:51.444Z,71.05
2019-02-07T19:33:22.447Z,70.31
2019-02-07T19:35:51.015Z,71.22
2019-02-07T19:38:20.363Z,69.37
2019-02-07T19:40:49.452Z,69.28
2019-02-07T19:43:18.719Z,70.46
2019-02-07T19:45:48.101Z,71.19
2019-02-07T19:48:17.146Z,70.24
2019-02-07T19:50:46.731Z,70.86
2019-02-07T19:53:15.763Z,72.01
2019-02-07T19:55:45.157Z,71.87
2019-02-07T19:58:14.578Z,71.99
2019-02-07T20:00:43.636Z,71.11
2019-02-07T20:03:12.718Z,69.89
2019-02-07T20:05:41.811Z,69.81
2019-02-07T20:08:10.344Z,69.67
2019-02-07T20:10:39.564Z,69.17
2019-02-07T20:13:09.550Z,71.78
2019-02-07T20:15:40.507Z,73.82
2019-02-07T20:18:10.807Z,71.61
2019-02-07T20:20:40.238Z,69.52
2019-02-07T20:23:08.893Z,70.19
2019-02-07T20:25:38.493Z,70.62
2019-02-07T20:28:07.337Z,70.52
2019-02-07T20:30:38.450Z,68.28
2019-02-07T20:33:08.837Z,70.00
2019-02-07T20:35:38.222Z,69.29
2019-02-07T20:38:07.787Z,68.26
2019-02-07T20:40:37.075Z,69.52
2019-02-07T20:43:05.945Z,68.00
2019-02-07T20:45:35.124Z,67.76
2019-02-07T20:48:04.630Z,70.18
2019-02-07T20:50:33.551Z,68.63
2019-02-07T20:53:02.024Z,68.36
2019-02-07T20:55:31.138Z,68.40
2019-02-07T20:58:00.215Z,67.69
2019-02-07T21:00:33.275Z,67.26
2019-02-07T21:03:02.367Z,67.04
2019-02-07T21:05:31.623Z,68.14
2019-02-07T21:08:00.495Z,67.58
2019-02-07T21:10:31.053Z,67.50
2019-02-07T21:12:59.802Z,68.78
2019-02-07T21:15:33.315Z,67.48
2019-02-07T21:18:01.998Z,68.31
2019-02-07T21:20:31.111Z,67.36
2019-02-07T21:23:00.458Z,67.20
2019-02-07T21:25:48.865Z,67.80
2019-02-07T21:28:17.666Z,67.12
2019-02-07T21:30:46.272Z,67.89
2019-02-07T21:33:14.803Z,67.89
2019-02-07T21:35:43.718Z,67.50
2019-02-07T21:38:12.570Z,67.83
2019-02-07T21:40:41.584Z,67.78
2019-02-07T21:43:11.054Z,68.13
2019-02-07T21:45:39.677Z,65.21
2019-02-07T21:48:10.530Z,66.61
2019-02-07T21:50:39.337Z,66.71
2019-02-07T21:53:08.511Z,66.73
2019-02-07T21:55:36.849Z,66.13
2019-02-07T21:58:05.347Z,66.20
2019-02-07T22:00:36.163Z,68.35
2019-02-07T22:03:04.946Z,67.11
2019-02-07T22:05:33.768Z,66.15
2019-02-07T22:08:02.271Z,66.50
2019-02-07T22:10:30.792Z,65.23
2019-02-07T22:12:59.481Z,65.70
2019-02-07T22:15:29.558Z,65.46
2019-02-07T22:17:57.615Z,65.53
2019-02-07T22:20:26.152Z,66.47
2019-02-07T22:22:54.341Z,64.74
2019-02-07T22:25:22.507Z,64.69
2019-02-07T22:27:50.550Z,65.05
2019-02-07T22:30:24.143Z,65.71
2019-02-07T22:32:52.082Z,65.39
2019-02-07T22:35:20.148Z,66.62
2019-02-07T22:37:48.174Z,64.87
2019-02-07T22:40:18.214Z,64.89
2019-02-07T22:42:47.931Z,65.52
2019-02-07T22:45:16.515Z,65.74
2019-02-07T22:47:44.925Z,65.40
2019-02-07T22:50:16.052Z,66.24
2019-02-07T22:52:44.119Z,66.50
2019-02-07T22:55:12.191Z,65.73
2019-02-07T22:57:40.605Z,65.58
2019-02-07T23:01:00.495Z,64.91
2019-02-07T23:03:28.489Z,66.39
2019-02-07T23:05:56.550Z,65.18
2019-02-07T23:08:26.280Z,65.95
2019-02-07T23:10:54.270Z,65.37
2019-02-07T23:13:22.270Z,65.79
2019-02-07T23:15:50.312Z,66.55
2019-02-07T23:18:18.360Z,65.05
2019-02-07T23:20:46.356Z,64.60
2019-02-07T23:23:14.406Z,67.00
2019-02-07T23:25:42.706Z,65.43
2019-02-07T23:28:10.706Z,65.44
2019-02-07T23:30:38.710Z,67.17
2019-02-07T23:33:06.809Z,66.94
2019-02-07T23:35:34.850Z,67.88
2019-02-07T23:38:02.877Z,66.52
2019-02-07T23:40:30.906Z,67.82
2019-02-07T23:42:59.228Z,67.93
2019-02-07T23:45:27.233Z,66.82
2019-02-07T23:47:55.218Z,66.78
2019-02-07T23:50:23.283Z,68.06
2019-02-07T23:52:51.326Z,66.24
2019-02-07T23:55:19.335Z,66.64
2019-02-07T23:57:47.519Z,65.97
